createdAt,value
2022-10-21T00:00:01.080Z,1015.94
2022-10-21T00:01:04.798Z,1015.93
2022-10-21T00:02:01.768Z,1015.96
2022-10-21T00:03:01.112Z,1015.95
2022-10-21T00:04:01.082Z,1015.92
2022-10-21T00:05:01.467Z,1015.89
2022-10-21T00:06:07.632Z,1015.89
2022-10-21T00:07:01.102Z,1015.88
2022-10-21T00:08:01.123Z,1015.87
2022-10-21T00:09:01.499Z,1015.82
2022-10-21T00:10:01.134Z,1015.82
2022-10-21T00:11:10.599Z,1015.77
2022-10-21T00:12:01.366Z,1015.79
2022-10-21T00:13:02.067Z,1015.87
2022-10-21T00:14:01.093Z,1015.89
2022-10-21T00:15:00.743Z,1015.86
2022-10-21T00:16:13.419Z,1015.9
2022-10-21T00:17:01.074Z,1015.88
2022-10-21T00:18:01.087Z,1015.83
2022-10-21T00:19:01.072Z,1015.78
2022-10-21T00:20:01.056Z,1015.82
2022-10-21T00:21:16.844Z,1015.83
2022-10-21T00:22:02.318Z,1015.8
2022-10-21T00:23:01.505Z,1015.75
2022-10-21T00:24:01.181Z,1015.78
2022-10-21T00:25:01.270Z,1015.74
2022-10-21T00:26:01.127Z,1015.76
2022-10-21T00:27:01.146Z,1015.72
2022-10-21T00:28:01.537Z,1015.68
2022-10-21T00:29:01.573Z,1015.69
2022-10-21T00:30:01.198Z,1015.68
2022-10-21T00:31:01.190Z,1015.65
2022-10-21T00:32:01.193Z,1015.7
2022-10-21T00:33:03.107Z,1015.69
2022-10-21T00:34:01.466Z,1015.69
2022-10-21T00:35:02.205Z,1015.69
2022-10-21T00:36:01.204Z,1015.66
2022-10-21T00:37:01.115Z,1015.65
2022-10-21T00:38:01.105Z,1015.64
2022-10-21T00:39:01.110Z,1015.64
2022-10-21T00:40:01.120Z,1015.65
2022-10-21T00:41:01.106Z,1015.69
2022-10-21T00:42:01.133Z,1015.7
2022-10-21T00:43:01.955Z,1015.65
2022-10-21T00:44:01.528Z,1015.64
2022-10-21T00:45:01.220Z,1015.63
2022-10-21T00:46:01.151Z,1015.59
2022-10-21T00:47:01.171Z,1015.57
2022-10-21T00:48:01.062Z,1015.53
2022-10-21T00:49:01.173Z,1015.54
2022-10-21T00:50:01.076Z,1015.52
2022-10-21T00:51:01.086Z,1015.42
2022-10-21T00:52:01.401Z,1015.44
2022-10-21T00:53:01.395Z,1015.4
2022-10-21T00:54:02.285Z,1015.35
2022-10-21T00:55:02.109Z,1015.3
2022-10-21T00:56:01.119Z,1015.29
2022-10-21T00:57:01.108Z,1015.3
2022-10-21T00:58:01.045Z,1015.3
2022-10-21T00:59:01.051Z,1015.3
2022-10-21T01:00:01.137Z,1015.38
2022-10-21T01:01:01.163Z,1015.41
2022-10-21T01:02:01.902Z,1015.45
2022-10-21T01:03:00.643Z,1015.38
2022-10-21T01:04:00.227Z,1015.29
2022-10-21T01:04:59.919Z,1015.28
2022-10-21T01:05:59.531Z,1015.24
2022-10-21T01:07:01.119Z,1015.25
2022-10-21T01:08:01.110Z,1015.17
2022-10-21T01:09:01.201Z,1015.15
2022-10-21T01:10:01.870Z,1015.13
2022-10-21T01:11:01.105Z,1015.07
2022-10-21T01:12:01.525Z,1015.05
2022-10-21T01:13:02.208Z,1015.01
2022-10-21T01:14:02.102Z,1014.97
2022-10-21T01:16:01.146Z,1015.02
2022-10-21T01:17:01.148Z,1014.99
2022-10-21T01:18:01.155Z,1014.99
2022-10-21T01:19:01.553Z,1015
2022-10-21T01:20:01.073Z,1014.99
2022-10-21T01:21:01.794Z,1014.94
2022-10-21T01:22:01.088Z,1014.93
2022-10-21T01:23:01.069Z,1014.94
2022-10-21T01:24:01.597Z,1014.99
2022-10-21T01:25:02.068Z,1014.94
2022-10-21T01:26:02.069Z,1014.97
2022-10-21T01:27:01.105Z,1014.97
2022-10-21T01:28:01.108Z,1014.94
2022-10-21T01:29:01.129Z,1014.89
2022-10-21T01:30:01.118Z,1014.91
2022-10-21T01:31:01.151Z,1014.92
2022-10-21T01:32:01.643Z,1014.9
2022-10-21T01:33:01.300Z,1014.93
2022-10-21T01:34:01.145Z,1014.93
2022-10-21T01:35:01.183Z,1014.86
2022-10-21T01:36:01.159Z,1014.92
2022-10-21T01:37:04.532Z,1014.92
2022-10-21T01:38:01.859Z,1014.92
2022-10-21T01:39:02.616Z,1014.9
2022-10-21T01:40:01.692Z,1014.87
2022-10-21T01:41:02.102Z,1014.93
2022-10-21T01:42:07.638Z,1014.9
2022-10-21T01:43:01.122Z,1014.87
2022-10-21T01:44:01.623Z,1014.84
2022-10-21T01:45:01.120Z,1014.78
2022-10-21T01:46:01.143Z,1014.81
2022-10-21T01:47:10.300Z,1014.8
2022-10-21T01:48:01.229Z,1014.79
2022-10-21T01:49:01.547Z,1014.8
2022-10-21T01:50:02.229Z,1014.8
2022-10-21T01:51:01.181Z,1014.73
2022-10-21T01:52:13.398Z,1014.8
2022-10-21T01:53:01.086Z,1014.76
2022-10-21T01:54:01.091Z,1014.77
2022-10-21T01:55:01.068Z,1014.82
2022-10-21T01:56:01.078Z,1014.84
2022-10-21T01:57:15.762Z,1014.86
2022-10-21T01:58:01.468Z,1014.78
2022-10-21T01:59:01.105Z,1014.8
2022-10-21T02:00:01.044Z,1014.81
2022-10-21T02:01:01.187Z,1014.73
2022-10-21T02:02:01.136Z,1014.71
2022-10-21T02:03:01.126Z,1014.7
2022-10-21T02:04:01.127Z,1014.73
2022-10-21T02:05:01.137Z,1014.71
2022-10-21T02:06:01.153Z,1014.7
2022-10-21T02:07:01.146Z,1014.68
2022-10-21T02:08:01.183Z,1014.62
2022-10-21T02:09:01.167Z,1014.52
2022-10-21T02:10:01.076Z,1014.51
2022-10-21T02:11:01.057Z,1014.45
2022-10-21T02:12:01.067Z,1014.43
2022-10-21T02:13:00.681Z,1014.42
2022-10-21T02:14:00.261Z,1014.32
2022-10-21T02:14:59.856Z,1014.31
2022-10-21T02:16:01.551Z,1014.26
2022-10-21T02:17:01.352Z,1014.24
2022-10-21T02:18:02.138Z,1014.22
2022-10-21T02:19:01.689Z,1014.15
2022-10-21T02:20:00.797Z,1014.08
2022-10-21T02:21:01.624Z,1013.96
2022-10-21T02:22:01.151Z,1013.91
2022-10-21T02:23:01.157Z,1013.8
2022-10-21T02:24:01.166Z,1013.71
2022-10-21T02:25:01.226Z,1013.65
2022-10-21T02:26:01.197Z,1013.6
2022-10-21T02:27:01.080Z,1013.62
2022-10-21T02:28:01.084Z,1013.61
2022-10-21T02:29:01.117Z,1013.59
2022-10-21T02:30:01.093Z,1013.56
2022-10-21T02:31:01.133Z,1013.6
2022-10-21T02:32:01.119Z,1013.58
2022-10-21T02:33:00.791Z,1013.6
2022-10-21T02:34:00.612Z,1013.61
2022-10-21T02:35:00.275Z,1013.63
2022-10-21T02:35:59.921Z,1013.64
2022-10-21T02:36:59.597Z,1013.65
2022-10-21T02:38:01.467Z,1013.64
2022-10-21T02:39:02.188Z,1013.61
2022-10-21T02:40:02.173Z,1013.61
2022-10-21T02:41:02.005Z,1013.58
2022-10-21T02:42:02.098Z,1013.59
2022-10-21T02:43:01.467Z,1013.6
2022-10-21T02:44:01.243Z,1013.63
2022-10-21T02:45:01.145Z,1013.65
2022-10-21T02:46:01.107Z,1013.61
2022-10-21T02:47:01.180Z,1013.57
2022-10-21T02:48:00.798Z,1013.69
2022-10-21T02:49:00.485Z,1013.7
2022-10-21T02:50:00.184Z,1013.84
2022-10-21T02:50:59.905Z,1013.82
2022-10-21T02:51:59.739Z,1013.78
2022-10-21T02:53:01.925Z,1013.79
2022-10-21T02:54:02.493Z,1013.74
2022-10-21T02:55:01.161Z,1013.75
2022-10-21T02:56:01.178Z,1013.71
2022-10-21T02:57:01.787Z,1013.75
2022-10-21T02:58:01.085Z,1013.79
2022-10-21T02:59:01.066Z,1013.86
2022-10-21T03:00:01.125Z,1013.86
2022-10-21T03:01:01.186Z,1013.86
2022-10-21T03:02:01.129Z,1013.86
2022-10-21T03:03:01.102Z,1013.9
2022-10-21T03:04:01.191Z,1013.94
2022-10-21T03:05:01.436Z,1013.83
2022-10-21T03:06:02.138Z,1013.79
2022-10-21T03:07:01.133Z,1013.74
2022-10-21T03:08:01.141Z,1013.66
2022-10-21T03:09:01.225Z,1013.67
2022-10-21T03:10:01.309Z,1013.69
2022-10-21T03:11:01.162Z,1013.72
2022-10-21T03:12:01.149Z,1013.72
2022-10-21T03:13:01.273Z,1013.67
2022-10-21T03:14:01.875Z,1013.66
2022-10-21T03:15:02.616Z,1013.64
2022-10-21T03:16:01.095Z,1013.62
2022-10-21T03:17:01.095Z,1013.58
2022-10-21T03:18:01.210Z,1013.51
2022-10-21T03:19:01.258Z,1013.45
2022-10-21T03:20:01.521Z,1013.41
2022-10-21T03:21:01.236Z,1013.45
2022-10-21T03:22:01.113Z,1013.51
2022-10-21T03:23:03.553Z,1013.56
2022-10-21T03:24:01.045Z,1013.68
2022-10-21T03:25:01.143Z,1013.67
2022-10-21T03:26:01.156Z,1013.68
2022-10-21T03:27:01.148Z,1013.65
2022-10-21T03:28:06.357Z,1013.61
2022-10-21T03:29:01.067Z,1013.62
2022-10-21T03:30:01.064Z,1013.71
2022-10-21T03:31:01.080Z,1013.76
2022-10-21T03:32:02.037Z,1013.75
2022-10-21T03:33:08.471Z,1013.77
2022-10-21T03:34:01.793Z,1013.77
2022-10-21T03:35:01.390Z,1013.74
2022-10-21T03:36:01.285Z,1013.81
2022-10-21T03:37:01.439Z,1013.81
2022-10-21T03:38:12.646Z,1013.72
2022-10-21T03:39:02.784Z,1013.71
2022-10-21T03:40:01.331Z,1013.72
2022-10-21T03:41:02.582Z,1013.72
2022-10-21T03:42:01.145Z,1013.67
2022-10-21T03:43:15.445Z,1013.62
2022-10-21T03:44:01.450Z,1013.65
2022-10-21T03:45:01.062Z,1013.62
2022-10-21T03:46:01.245Z,1013.63
2022-10-21T03:47:01.085Z,1013.68
2022-10-21T03:48:01.067Z,1013.71
2022-10-21T03:49:04.248Z,1013.68
2022-10-21T03:50:01.468Z,1013.68
2022-10-21T03:51:01.051Z,1013.7
2022-10-21T03:52:01.093Z,1013.65
2022-10-21T03:53:02.418Z,1013.65
2022-10-21T03:54:01.035Z,1013.66
2022-10-21T03:55:01.204Z,1013.66
2022-10-21T03:56:01.239Z,1013.66
2022-10-21T03:57:01.236Z,1013.65
2022-10-21T03:58:01.255Z,1013.6
2022-10-21T03:59:01.151Z,1013.6
2022-10-21T04:00:01.222Z,1013.57
2022-10-21T04:01:01.062Z,1013.49
2022-10-21T04:02:01.131Z,1013.47
2022-10-21T04:03:01.083Z,1013.47
2022-10-21T04:04:01.317Z,1013.43
2022-10-21T04:05:01.487Z,1013.45
2022-10-21T04:06:01.219Z,1013.39
2022-10-21T04:07:01.921Z,1013.34
2022-10-21T04:08:03.065Z,1013.3
2022-10-21T04:09:01.213Z,1013.32
2022-10-21T04:10:01.549Z,1013.34
2022-10-21T04:11:01.136Z,1013.36
2022-10-21T04:12:01.165Z,1013.34
2022-10-21T04:13:01.166Z,1013.28
2022-10-21T04:14:02.193Z,1013.24
2022-10-21T04:15:01.154Z,1013.18
2022-10-21T04:16:01.161Z,1013.15
2022-10-21T04:17:07.455Z,1013.15
2022-10-21T04:18:01.079Z,1013.18
2022-10-21T04:19:01.062Z,1013.19
2022-10-21T04:20:01.092Z,1013.19
2022-10-21T04:21:01.085Z,1013.21
2022-10-21T04:22:01.082Z,1013.17
2022-10-21T04:23:01.107Z,1013.17
2022-10-21T04:24:01.163Z,1013.17
2022-10-21T04:25:03.943Z,1013.07
2022-10-21T04:26:02.718Z,1013.06
2022-10-21T04:27:01.150Z,1013.02
2022-10-21T04:28:01.129Z,1012.94
2022-10-21T04:29:01.172Z,1012.87
2022-10-21T04:30:01.315Z,1012.82
2022-10-21T04:31:01.692Z,1012.8
2022-10-21T04:32:02.658Z,1012.76
2022-10-21T04:33:02.061Z,1012.73
2022-10-21T04:34:01.863Z,1012.73
2022-10-21T04:35:01.469Z,1012.69
2022-10-21T04:36:01.184Z,1012.67
2022-10-21T04:37:04.131Z,1012.69
2022-10-21T04:38:01.145Z,1012.72
2022-10-21T04:39:01.401Z,1012.74
2022-10-21T04:40:01.326Z,1012.74
2022-10-21T04:41:02.349Z,1012.72
2022-10-21T04:42:01.430Z,1012.71
2022-10-21T04:43:02.045Z,1012.72
2022-10-21T04:44:02.143Z,1012.73
2022-10-21T04:45:01.168Z,1012.82
2022-10-21T04:46:01.489Z,1012.83
2022-10-21T04:47:01.045Z,1012.82
2022-10-21T04:48:01.169Z,1012.81
2022-10-21T04:49:01.181Z,1012.84
2022-10-21T04:50:01.198Z,1012.85
2022-10-21T04:51:01.885Z,1012.84
2022-10-21T04:52:01.967Z,1012.78
2022-10-21T04:53:01.088Z,1012.76
2022-10-21T04:54:01.105Z,1012.72
2022-10-21T04:55:01.101Z,1012.75
2022-10-21T04:56:01.105Z,1012.63
2022-10-21T04:57:01.122Z,1012.71
2022-10-21T04:58:01.451Z,1012.72
2022-10-21T04:59:01.267Z,1012.69
2022-10-21T05:00:01.310Z,1012.65
2022-10-21T05:01:01.222Z,1012.69
2022-10-21T05:03:01.733Z,1012.67
2022-10-21T05:04:02.911Z,1012.61
2022-10-21T05:05:01.735Z,1012.6
2022-10-21T05:06:01.307Z,1012.62
2022-10-21T05:07:01.232Z,1012.68
2022-10-21T05:08:01.223Z,1012.65
2022-10-21T05:09:05.189Z,1012.57
2022-10-21T05:10:01.608Z,1012.56
2022-10-21T05:11:01.023Z,1012.53
2022-10-21T05:12:00.866Z,1012.5
2022-10-21T05:13:01.652Z,1012.47
2022-10-21T05:14:07.366Z,1012.47
2022-10-21T05:15:01.311Z,1012.45
2022-10-21T05:16:01.945Z,1012.4
2022-10-21T05:17:01.027Z,1012.36
2022-10-21T05:18:01.185Z,1012.3
2022-10-21T05:19:10.942Z,1012.3
2022-10-21T05:20:01.841Z,1012.34
2022-10-21T05:21:00.636Z,1012.32
2022-10-21T05:22:00.240Z,1012.31
2022-10-21T05:22:59.928Z,1012.34
2022-10-21T05:24:15.247Z,1012.33
2022-10-21T05:25:01.265Z,1012.25
2022-10-21T05:26:01.177Z,1012.3
2022-10-21T05:27:01.766Z,1012.31
2022-10-21T05:28:01.448Z,1012.31
2022-10-21T05:29:02.124Z,1012.31
2022-10-21T05:30:04.829Z,1012.28
2022-10-21T05:31:02.155Z,1012.29
2022-10-21T05:32:02.107Z,1012.35
2022-10-21T05:33:02.043Z,1012.34
2022-10-21T05:34:01.367Z,1012.27
2022-10-21T05:35:01.486Z,1012.25
2022-10-21T05:36:02.068Z,1012.25
2022-10-21T05:37:02.082Z,1012.3
2022-10-21T05:38:01.058Z,1012.32
2022-10-21T05:39:01.165Z,1012.36
2022-10-21T05:40:01.287Z,1012.33
2022-10-21T05:41:01.072Z,1012.34
2022-10-21T05:42:01.203Z,1012.31
2022-10-21T05:43:01.238Z,1012.34
2022-10-21T05:44:01.489Z,1012.33
2022-10-21T05:45:01.110Z,1012.34
2022-10-21T05:46:01.868Z,1012.33
2022-10-21T05:47:01.470Z,1012.37
2022-10-21T05:48:01.506Z,1012.36
2022-10-21T05:49:01.267Z,1012.36
2022-10-21T05:50:01.288Z,1012.42
2022-10-21T05:51:01.959Z,1012.46
2022-10-21T05:52:01.265Z,1012.51
2022-10-21T05:53:01.080Z,1012.52
2022-10-21T05:54:01.606Z,1012.47
2022-10-21T05:55:01.161Z,1012.48
2022-10-21T05:56:01.209Z,1012.47
2022-10-21T05:57:01.075Z,1012.43
2022-10-21T05:58:01.095Z,1012.5
2022-10-21T05:59:01.107Z,1012.51
2022-10-21T06:00:01.462Z,1012.46
2022-10-21T06:01:01.184Z,1012.42
2022-10-21T06:02:02.066Z,1012.43
2022-10-21T06:03:01.951Z,1012.4
2022-10-21T06:04:01.046Z,1012.42
2022-10-21T06:05:01.167Z,1012.35
2022-10-21T06:06:01.319Z,1012.29
2022-10-21T06:07:01.534Z,1012.34
2022-10-21T06:08:01.602Z,1012.31
2022-10-21T06:09:02.356Z,1012.28
2022-10-21T06:10:02.062Z,1012.28
2022-10-21T06:11:02.702Z,1012.32
2022-10-21T06:12:01.900Z,1012.29
2022-10-21T06:13:01.727Z,1012.24
2022-10-21T06:14:01.162Z,1012.22
2022-10-21T06:15:01.560Z,1012.19
2022-10-21T06:16:01.660Z,1012.2
2022-10-21T06:17:02.297Z,1012.22
2022-10-21T06:18:01.139Z,1012.24
2022-10-21T06:19:01.583Z,1012.23
2022-10-21T06:20:01.403Z,1012.16
2022-10-21T06:21:02.116Z,1012.19
2022-10-21T06:22:01.278Z,1012.2
2022-10-21T06:23:01.292Z,1012.22
2022-10-21T06:24:01.310Z,1012.22
2022-10-21T06:25:04.094Z,1012.17
2022-10-21T06:26:01.163Z,1012.15
2022-10-21T06:27:01.131Z,1012.08
2022-10-21T06:28:01.528Z,1012.11
2022-10-21T06:29:01.109Z,1012.07
2022-10-21T06:30:01.084Z,1012.1
2022-10-21T06:31:01.099Z,1012.02
2022-10-21T06:32:01.225Z,1012.11
2022-10-21T06:33:01.406Z,1012.15
2022-10-21T06:34:01.425Z,1012.2
2022-10-21T06:35:01.257Z,1012.24
2022-10-21T06:36:01.288Z,1012.32
2022-10-21T06:37:02.035Z,1012.34
2022-10-21T06:38:01.175Z,1012.28
2022-10-21T06:39:01.158Z,1012.36
2022-10-21T06:40:01.155Z,1012.38
2022-10-21T06:41:01.050Z,1012.4
2022-10-21T06:42:01.473Z,1012.41
2022-10-21T06:43:01.294Z,1012.33
2022-10-21T06:44:01.350Z,1012.39
2022-10-21T06:45:01.697Z,1012.26
2022-10-21T06:46:01.088Z,1012.34
2022-10-21T06:47:01.287Z,1012.29
2022-10-21T06:48:01.563Z,1012.36
2022-10-21T06:49:01.919Z,1012.33
2022-10-21T06:50:05.595Z,1012.35
2022-10-21T06:51:01.221Z,1012.36
2022-10-21T06:52:01.512Z,1012.38
2022-10-21T06:53:01.238Z,1012.38
2022-10-21T06:54:01.180Z,1012.33
2022-10-21T06:55:08.609Z,1012.36
2022-10-21T06:56:00.802Z,1012.39
2022-10-21T06:57:01.148Z,1012.35
2022-10-21T06:58:01.208Z,1012.37
2022-10-21T06:59:01.072Z,1012.41
2022-10-21T07:00:11.453Z,1012.4
2022-10-21T07:01:01.926Z,1012.39
2022-10-21T07:02:01.460Z,1012.4
2022-10-21T07:03:01.240Z,1012.49
2022-10-21T07:04:01.691Z,1012.58
2022-10-21T07:05:14.634Z,1012.64
2022-10-21T07:06:01.118Z,1012.61
2022-10-21T07:07:01.134Z,1012.56
2022-10-21T07:08:01.254Z,1012.59
2022-10-21T07:09:01.642Z,1012.51
2022-10-21T07:10:16.934Z,1012.55
2022-10-21T07:11:01.640Z,1012.57
2022-10-21T07:12:01.169Z,1012.63
2022-10-21T07:13:01.159Z,1012.55
2022-10-21T07:14:01.070Z,1012.57
2022-10-21T07:15:01.073Z,1012.52
2022-10-21T07:16:00.795Z,1012.47
2022-10-21T07:17:00.769Z,1012.46
2022-10-21T07:18:00.409Z,1012.39
2022-10-21T07:19:00.163Z,1012.42
2022-10-21T07:19:59.863Z,1012.3
2022-10-21T07:21:01.495Z,1012.3
2022-10-21T07:22:01.117Z,1012.31
2022-10-21T07:23:01.105Z,1012.37
2022-10-21T07:24:01.124Z,1012.36
2022-10-21T07:26:01.914Z,1012.47
2022-10-21T07:27:01.239Z,1012.47
2022-10-21T07:28:01.146Z,1012.47
2022-10-21T07:29:01.319Z,1012.46
2022-10-21T07:30:01.185Z,1012.36
2022-10-21T07:31:01.990Z,1012.38
2022-10-21T07:32:02.601Z,1012.38
2022-10-21T07:33:01.524Z,1012.34
2022-10-21T07:34:01.296Z,1012.33
2022-10-21T07:35:01.177Z,1012.35
2022-10-21T07:36:00.905Z,1012.39
2022-10-21T07:37:01.106Z,1012.32
2022-10-21T07:38:01.126Z,1012.29
2022-10-21T07:39:01.119Z,1012.3
2022-10-21T07:40:01.130Z,1012.31
2022-10-21T07:41:01.377Z,1012.22
2022-10-21T07:42:01.540Z,1012.17
2022-10-21T07:43:02.386Z,1012.11
2022-10-21T07:44:01.154Z,1012.12
2022-10-21T07:45:01.971Z,1012.11
2022-10-21T07:46:04.415Z,1012.17
2022-10-21T07:47:01.889Z,1012.23
2022-10-21T07:48:01.664Z,1012.23
2022-10-21T07:49:01.238Z,1012.34
2022-10-21T07:50:01.306Z,1012.43
2022-10-21T07:51:04.308Z,1012.5
2022-10-21T07:52:01.255Z,1012.63
2022-10-21T07:53:12.392Z,1012.53
2022-10-21T07:54:01.113Z,1012.56
2022-10-21T07:55:01.159Z,1012.56
2022-10-21T07:56:01.474Z,1012.54
2022-10-21T07:57:01.257Z,1012.52
2022-10-21T07:58:02.097Z,1012.5
2022-10-21T07:59:02.057Z,1012.51
2022-10-21T08:00:01.230Z,1012.51
2022-10-21T08:01:01.688Z,1012.53
2022-10-21T08:02:01.174Z,1012.51
2022-10-21T08:03:01.812Z,1012.56
2022-10-21T08:04:01.425Z,1012.54
2022-10-21T08:05:01.102Z,1012.56
2022-10-21T08:06:01.080Z,1012.49
2022-10-21T08:07:01.065Z,1012.55
2022-10-21T08:08:01.384Z,1012.49
2022-10-21T08:09:01.638Z,1012.53
2022-10-21T08:10:01.566Z,1012.45
2022-10-21T08:11:01.151Z,1012.49
2022-10-21T08:12:01.564Z,1012.49
2022-10-21T08:13:01.122Z,1012.4
2022-10-21T08:14:00.818Z,1012.36
2022-10-21T08:15:00.411Z,1012.33
2022-10-21T08:16:00.173Z,1012.32
2022-10-21T08:17:01.567Z,1012.28
2022-10-21T08:18:01.043Z,1012.26
2022-10-21T08:19:01.075Z,1012.22
2022-10-21T08:20:01.065Z,1012.2
2022-10-21T08:21:01.073Z,1012.23
2022-10-21T08:22:01.074Z,1012.21
2022-10-21T08:23:01.141Z,1012.22
2022-10-21T08:24:01.335Z,1012.22
2022-10-21T08:25:01.192Z,1012.23
2022-10-21T08:26:01.481Z,1012.2
2022-10-21T08:27:01.107Z,1012.24
2022-10-21T08:28:01.116Z,1012.21
2022-10-21T08:29:01.133Z,1012.2
2022-10-21T08:30:01.123Z,1012.23
2022-10-21T08:31:05.215Z,1012.29
2022-10-21T08:32:01.592Z,1012.32
2022-10-21T08:33:01.529Z,1012.33
2022-10-21T08:34:01.105Z,1012.29
2022-10-21T08:35:00.724Z,1012.32
2022-10-21T08:36:08.415Z,1012.33
2022-10-21T08:37:02.083Z,1012.35
2022-10-21T08:38:01.984Z,1012.34
2022-10-21T08:39:01.073Z,1012.34
2022-10-21T08:40:01.093Z,1012.39
2022-10-21T08:41:10.997Z,1012.37
2022-10-21T08:42:01.494Z,1012.34
2022-10-21T08:43:01.136Z,1012.26
2022-10-21T08:44:01.347Z,1012.29
2022-10-21T08:45:01.282Z,1012.41
2022-10-21T08:46:13.985Z,1012.38
2022-10-21T08:47:01.221Z,1012.36
2022-10-21T08:48:01.164Z,1012.38
2022-10-21T08:49:01.340Z,1012.43
2022-10-21T08:50:01.316Z,1012.44
2022-10-21T08:51:16.110Z,1012.32
2022-10-21T08:52:02.073Z,1012.37
2022-10-21T08:53:01.074Z,1012.31
2022-10-21T08:54:01.185Z,1012.34
2022-10-21T08:55:01.169Z,1012.32
2022-10-21T08:56:01.207Z,1012.25
2022-10-21T08:57:00.794Z,1012.24
2022-10-21T08:58:00.481Z,1012.18
2022-10-21T08:59:00.188Z,1012.18
2022-10-21T08:59:59.753Z,1012.16
2022-10-21T09:01:01.786Z,1012.11
2022-10-21T09:02:01.075Z,1012.06
2022-10-21T09:03:01.229Z,1012.08
2022-10-21T09:04:01.100Z,1012.08
2022-10-21T09:05:01.293Z,1012.11
2022-10-21T09:06:01.154Z,1012.06
2022-10-21T09:07:01.218Z,1012.04
2022-10-21T09:08:01.474Z,1012.02
2022-10-21T09:09:01.305Z,1012.05
2022-10-21T09:10:01.979Z,1012.07
2022-10-21T09:11:01.071Z,1012.16
2022-10-21T09:12:00.773Z,1012.14
2022-10-21T09:13:00.414Z,1012.15
2022-10-21T09:14:00.314Z,1012.14
2022-10-21T09:15:00.286Z,1012.15
2022-10-21T09:15:59.982Z,1012.12
2022-10-21T09:16:59.681Z,1012.11
2022-10-21T09:18:01.839Z,1012.13
2022-10-21T09:19:01.459Z,1012.04
2022-10-21T09:20:02.581Z,1011.94
2022-10-21T09:21:04.699Z,1011.92
2022-10-21T09:22:10.827Z,1011.98
2022-10-21T09:23:02.387Z,1011.99
2022-10-21T09:24:02.309Z,1011.96
2022-10-21T09:25:01.063Z,1011.94
2022-10-21T09:26:01.323Z,1011.83
2022-10-21T09:27:02.010Z,1011.78
2022-10-21T09:28:01.318Z,1011.73
2022-10-21T09:29:01.109Z,1011.72
2022-10-21T09:30:01.548Z,1011.73
2022-10-21T09:31:01.173Z,1011.74
2022-10-21T09:32:02.660Z,1011.75
2022-10-21T09:33:02.108Z,1011.73
2022-10-21T09:34:01.438Z,1011.74
2022-10-21T09:35:02.712Z,1011.74
2022-10-21T09:36:01.324Z,1011.72
2022-10-21T09:37:01.847Z,1011.75
2022-10-21T09:38:02.601Z,1011.76
2022-10-21T09:39:01.913Z,1011.79
2022-10-21T09:40:01.532Z,1011.77
2022-10-21T09:41:01.292Z,1011.81
2022-10-21T09:42:03.802Z,1011.8
2022-10-21T09:43:01.133Z,1011.78
2022-10-21T09:44:01.058Z,1011.79
2022-10-21T09:45:01.844Z,1011.72
2022-10-21T09:46:01.132Z,1011.75
2022-10-21T09:47:01.597Z,1011.7
2022-10-21T09:48:01.134Z,1011.7
2022-10-21T09:49:36.312Z,1011.71
2022-10-21T09:50:07.445Z,1011.69
2022-10-21T09:51:01.861Z,1011.7
2022-10-21T09:52:01.771Z,1011.69
2022-10-21T09:53:01.449Z,1011.71
2022-10-21T09:54:01.055Z,1011.68
2022-10-21T09:55:01.455Z,1011.62
2022-10-21T09:56:01.289Z,1011.58
2022-10-21T09:57:00.763Z,1011.52
2022-10-21T09:58:00.478Z,1011.49
2022-10-21T09:59:02.922Z,1011.52
2022-10-21T10:00:01.136Z,1011.48
2022-10-21T10:01:01.094Z,1011.51
2022-10-21T10:02:01.195Z,1011.51
2022-10-21T10:03:01.566Z,1011.54
2022-10-21T10:04:02.302Z,1011.53
2022-10-21T10:05:01.142Z,1011.61
2022-10-21T10:06:00.809Z,1011.62
2022-10-21T10:07:04.569Z,1011.58
2022-10-21T10:08:01.892Z,1011.51
2022-10-21T10:09:01.734Z,1011.49
2022-10-21T10:10:01.374Z,1011.54
2022-10-21T10:11:01.052Z,1011.52
2022-10-21T10:12:06.376Z,1011.55
2022-10-21T10:13:01.193Z,1011.49
2022-10-21T10:14:02.256Z,1011.49
2022-10-21T10:15:01.983Z,1011.44
2022-10-21T10:16:01.406Z,1011.42
2022-10-21T10:17:09.297Z,1011.38
2022-10-21T10:18:02.524Z,1011.33
2022-10-21T10:19:01.101Z,1011.31
2022-10-21T10:20:01.175Z,1011.3
2022-10-21T10:21:01.459Z,1011.27
2022-10-21T10:22:11.988Z,1011.33
2022-10-21T10:23:01.140Z,1011.35
2022-10-21T10:24:01.148Z,1011.4
2022-10-21T10:25:01.259Z,1011.35
2022-10-21T10:26:01.172Z,1011.33
2022-10-21T10:27:14.021Z,1011.28
2022-10-21T10:28:01.055Z,1011.31
2022-10-21T10:29:01.066Z,1011.29
2022-10-21T10:30:01.110Z,1011.28
2022-10-21T10:31:01.086Z,1011.24
2022-10-21T10:32:16.194Z,1011.28
2022-10-21T10:33:02.145Z,1011.24
2022-10-21T10:34:02.158Z,1011.29
2022-10-21T10:35:01.281Z,1011.28
2022-10-21T10:36:05.160Z,1011.29
2022-10-21T10:37:01.121Z,1011.32
2022-10-21T10:38:01.144Z,1011.28
2022-10-21T10:39:01.145Z,1011.33
2022-10-21T10:40:01.135Z,1011.33
2022-10-21T10:41:01.408Z,1011.33
2022-10-21T10:42:01.678Z,1011.29
2022-10-21T10:43:01.083Z,1011.31
2022-10-21T10:44:01.081Z,1011.31
2022-10-21T10:45:01.073Z,1011.32
2022-10-21T10:46:01.085Z,1011.35
2022-10-21T10:47:01.113Z,1011.34
2022-10-21T10:48:01.094Z,1011.34
2022-10-21T10:49:01.092Z,1011.37
2022-10-21T10:50:01.128Z,1011.33
2022-10-21T10:51:01.137Z,1011.32
2022-10-21T10:52:01.118Z,1011.31
2022-10-21T10:53:01.753Z,1011.3
2022-10-21T10:54:01.730Z,1011.28
2022-10-21T10:55:01.783Z,1011.34
2022-10-21T10:56:01.815Z,1011.34
2022-10-21T10:57:01.967Z,1011.43
2022-10-21T10:58:10.781Z,1011.45
2022-10-21T10:59:01.059Z,1011.35
2022-10-21T11:00:01.068Z,1011.41
2022-10-21T11:01:01.121Z,1011.4
2022-10-21T11:02:01.145Z,1011.36
2022-10-21T11:03:01.686Z,1011.35
2022-10-21T11:04:01.082Z,1011.28
2022-10-21T11:05:01.127Z,1011.27
2022-10-21T11:06:01.238Z,1011.25
2022-10-21T11:07:01.040Z,1011.24
2022-10-21T11:08:01.124Z,1011.2
2022-10-21T11:09:01.090Z,1011.15
2022-10-21T11:10:01.132Z,1011.09
2022-10-21T11:11:01.147Z,1011.1
2022-10-21T11:12:01.150Z,1011.14
2022-10-21T11:13:01.256Z,1011.12
2022-10-21T11:14:02.086Z,1011.1
2022-10-21T11:15:02.000Z,1011.14
2022-10-21T11:16:01.070Z,1011.16
2022-10-21T11:17:01.393Z,1011.11
2022-10-21T11:18:17.129Z,1011.16
2022-10-21T11:19:01.089Z,1011.14
2022-10-21T11:20:01.348Z,1011.11
2022-10-21T11:21:01.486Z,1011.11
2022-10-21T11:22:05.801Z,1011.13
2022-10-21T11:23:01.152Z,1011.13
2022-10-21T11:24:01.125Z,1011.1
2022-10-21T11:25:01.043Z,1011.11
2022-10-21T11:26:01.126Z,1011.09
2022-10-21T11:27:01.136Z,1011.08
2022-10-21T11:28:01.142Z,1011.09
2022-10-21T11:29:04.726Z,1011.08
2022-10-21T11:30:01.547Z,1011.11
2022-10-21T11:31:01.253Z,1011.17
2022-10-21T11:32:11.685Z,1011.17
2022-10-21T11:33:01.760Z,1011.14
2022-10-21T11:34:01.769Z,1011.15
2022-10-21T11:35:01.383Z,1011.06
2022-10-21T11:36:01.104Z,1011.04
2022-10-21T11:37:01.110Z,1011.08
2022-10-21T11:38:01.490Z,1011
2022-10-21T11:39:01.222Z,1011.02
2022-10-21T11:40:01.128Z,1010.99
2022-10-21T11:41:01.098Z,1011.01
2022-10-21T11:42:01.162Z,1011.04
2022-10-21T11:43:01.136Z,1011
2022-10-21T11:44:01.200Z,1011.01
2022-10-21T11:45:01.051Z,1010.96
2022-10-21T11:46:01.085Z,1011.01
2022-10-21T11:47:01.272Z,1010.95
2022-10-21T11:48:01.933Z,1010.97
2022-10-21T11:49:02.325Z,1010.97
2022-10-21T11:50:01.809Z,1010.96
2022-10-21T11:51:05.287Z,1010.93
2022-10-21T11:52:01.084Z,1010.93
2022-10-21T11:53:01.100Z,1010.88
2022-10-21T11:54:01.109Z,1010.9
2022-10-21T11:55:10.068Z,1010.85
2022-10-21T11:56:01.644Z,1010.84
2022-10-21T11:57:01.127Z,1010.81
2022-10-21T11:58:03.546Z,1010.85
2022-10-21T11:59:01.145Z,1010.78
2022-10-21T12:00:01.147Z,1010.78
2022-10-21T12:01:01.160Z,1010.76
2022-10-21T12:02:04.188Z,1010.77
2022-10-21T12:03:05.972Z,1010.79
2022-10-21T12:04:01.568Z,1010.81
2022-10-21T12:05:01.073Z,1010.81
2022-10-21T12:06:01.241Z,1010.81
2022-10-21T12:07:01.951Z,1010.74
2022-10-21T12:08:08.407Z,1010.8
2022-10-21T12:09:01.092Z,1010.8
2022-10-21T12:10:01.123Z,1010.77
2022-10-21T12:11:01.143Z,1010.8